Time;durP1;ratioP1;P1;durP2;ratioP2;P2;SDS_P1;SDS_P2;PMS_P1;PMS_P2;Temp;Humidity;BMP_temperature;BMP_pressure;BME280_temperature;BME280_humidity;BME280_pressure;Samples;Min_cycle;Max_cycle;Signal;HPM_P1;HPM_P2
2022/12/22 03:27:25;;;;;;;1.25;0.90;;;9.40;93.70;;;;;;5091480;28;20178;-77
2022/12/22 03:29:51;;;;;;;1.30;0.98;;;9.40;93.70;;;;;;5060186;28;20483;-77
2022/12/22 03:32:16;;;;;;;1.40;1.00;;;9.40;93.70;;;;;;5092981;28;20069;-77
2022/12/22 03:34:42;;;;;;;1.38;1.08;;;9.40;93.70;;;;;;5074707;28;20047;-77
2022/12/22 03:37:08;;;;;;;0.82;0.75;;;9.40;93.70;;;;;;5074218;28;20040;-77
2022/12/22 03:39:33;;;;;;;0.90;0.80;;;9.40;93.80;;;;;;5057409;28;20040;-77
2022/12/22 03:47:16;;;;;;;0.82;0.70;;;9.30;93.70;;;;;;5075888;28;20043;-77
2022/12/22 03:49:42;;;;;;;1.58;1.08;;;9.40;93.80;;;;;;5074543;28;20051;-77
2022/12/22 03:52:08;;;;;;;1.20;0.90;;;9.40;93.80;;;;;;5065286;28;20473;-77
2022/12/22 03:54:33;;;;;;;0.70;0.70;;;9.40;93.70;;;;;;5114119;28;20039;-77
2022/12/22 03:56:59;;;;;;;1.02;0.70;;;9.40;93.80;;;;;;5133716;28;20031;-77
2022/12/22 03:59:24;;;;;;;0.80;0.70;;;9.40;93.80;;;;;;5115034;28;20039;-76
2022/12/22 04:01:52;;;;;;;1.02;0.80;;;9.40;93.80;;;;;;5096889;28;20062;-76
2022/12/22 04:04:19;;;;;;;0.85;0.70;;;9.40;93.80;;;;;;5133751;28;20039;-76
2022/12/22 04:06:46;;;;;;;0.90;0.80;;;9.30;93.80;;;;;;5098155;28;20031;-77
2022/12/22 04:09:11;;;;;;;1.35;0.80;;;9.40;93.80;;;;;;5114920;28;20047;-76
2022/12/22 04:14:22;;;;;;;0.80;0.73;;;9.30;93.80;;;;;;5132907;27;20072;-76
2022/12/22 04:16:48;;;;;;;0.85;0.80;;;9.30;93.80;;;;;;5080734;28;20522;-76
2022/12/22 04:19:14;;;;;;;0.90;0.77;;;9.40;93.80;;;;;;5097595;28;20035;-77
2022/12/22 04:21:41;;;;;;;1.17;0.85;;;9.40;93.80;;;;;;5132996;28;20039;-77
2022/12/22 04:24:07;;;;;;;1.52;0.90;;;9.50;93.80;;;;;;5115237;28;20083;-77
2022/12/22 04:26:33;;;;;;;1.10;0.82;;;9.30;93.80;;;;;;5097658;28;20157;-77
2022/12/22 04:28:59;;;;;;;0.63;0.52;;;9.40;93.80;;;;;;5080882;28;20115;-76
2022/12/22 04:31:25;;;;;;;0.60;0.50;;;9.40;93.80;;;;;;5113950;28;20085;-76
2022/12/22 04:33:50;;;;;;;1.55;0.90;;;9.40;93.80;;;;;;5133047;28;20366;-76
2022/12/22 04:36:17;;;;;;;1.08;0.82;;;9.40;93.90;;;;;;5128870;28;20035;-76
2022/12/22 04:38:43;;;;;;;1.52;0.80;;;9.30;93.80;;;;;;5097689;28;20067;-76
2022/12/22 04:41:08;;;;;;;1.33;1.10;;;9.30;93.80;;;;;;5113578;28;20118;-76
2022/12/22 04:43:34;;;;;;;1.83;1.13;;;9.30;93.80;;;;;;5112877;28;20078;-76
2022/12/22 04:46:00;;;;;;;1.65;1.00;;;9.30;93.80;;;;;;5114396;28;20043;-76
2022/12/22 04:48:28;;;;;;;0.63;0.60;;;9.30;93.80;;;;;;5114454;28;20134;-76
2022/12/22 04:50:55;;;;;;;0.88;0.77;;;9.30;93.80;;;;;;5097701;28;20063;-76
2022/12/22 04:53:21;;;;;;;1.95;1.27;;;9.30;93.80;;;;;;5132708;28;20042;-76
2022/12/22 04:55:52;;;;;;;1.30;1.10;;;9.30;93.90;;;;;;5132683;28;20126;-76
2022/12/22 04:58:17;;;;;;;1.13;0.90;;;9.30;93.90;;;;;;5114200;28;20093;-76
2022/12/22 05:00:43;;;;;;;1.48;0.98;;;9.30;93.90;;;;;;5132467;28;20513;-76
2022/12/22 05:03:09;;;;;;;1.30;1.00;;;9.30;93.90;;;;;;5113168;28;20078;-76
2022/12/22 05:05:34;;;;;;;1.27;0.90;;;9.30;93.90;;;;;;5097727;28;20127;-76
2022/12/22 05:08:01;;;;;;;1.30;1.02;;;9.30;93.90;;;;;;5132726;28;20042;-76
2022/12/22 05:10:27;;;;;;;1.95;1.20;;;9.30;93.90;;;;;;5097470;28;20437;-76
2022/12/22 05:12:53;;;;;;;1.33;0.90;;;9.30;93.90;;;;;;5097396;28;20039;-76
2022/12/22 05:15:20;;;;;;;2.30;1.13;;;9.30;93.90;;;;;;5114148;28;20047;-76
2022/12/22 05:17:46;;;;;;;0.98;0.85;;;9.30;93.80;;;;;;5097015;28;20035;-76
2022/12/22 05:20:12;;;;;;;1.63;1.00;;;9.30;93.80;;;;;;5113593;28;20378;-76
2022/12/22 05:22:38;;;;;;;0.77;0.70;;;9.30;93.90;;;;;;5097143;28;20042;-77
2022/12/22 05:25:04;;;;;;;0.93;0.82;;;9.20;93.90;;;;;;5113913;28;20100;-76
2022/12/22 05:27:29;;;;;;;1.00;0.90;;;9.30;93.90;;;;;;5135871;28;20122;-76
2022/12/22 05:29:55;;;;;;;0.95;0.80;;;9.30;93.90;;;;;;5118218;28;20130;-76
2022/12/22 05:32:21;;;;;;;1.15;0.75;;;9.30;93.90;;;;;;5136242;28;20039;-76
2022/12/22 05:34:46;;;;;;;0.90;0.90;;;9.20;93.90;;;;;;5136323;28;20127;-76
2022/12/22 05:37:12;;;;;;;1.35;0.90;;;9.20;93.90;;;;;;5099338;28;20075;-76
2022/12/22 05:39:37;;;;;;;0.73;0.70;;;9.20;93.90;;;;;;5115581;28;20139;-76
2022/12/22 05:42:03;;;;;;;1.52;0.88;;;9.20;94.00;;;;;;5136073;28;20035;-76
2022/12/22 05:44:29;;;;;;;1.42;0.93;;;9.30;93.90;;;;;;5115956;28;20088;-77
2022/12/22 05:46:55;;;;;;;1.20;0.98;;;9.30;94.00;;;;;;5100253;28;20043;-76
2022/12/22 05:49:20;;;;;;;1.50;1.00;;;9.30;94.00;;;;;;5135446;28;20047;-77
2022/12/22 05:51:47;;;;;;;1.70;0.95;;;9.30;93.90;;;;;;5099329;28;20040;-77
2022/12/22 05:54:12;;;;;;;2.33;1.20;;;9.30;93.90;;;;;;5098822;28;20534;-76
2022/12/22 05:56:38;;;;;;;2.53;1.33;;;9.30;93.90;;;;;;5117716;28;20122;-76
2022/12/22 05:59:04;;;;;;;2.40;1.20;;;9.30;93.90;;;;;;5116404;28;20490;-76
2022/12/22 06:01:29;;;;;;;1.83;1.20;;;9.30;93.90;;;;;;5116111;28;20050;-76
2022/12/22 06:03:55;;;;;;;2.00;1.08;;;9.30;93.90;;;;;;5098229;28;20076;-77
2022/12/22 06:06:21;;;;;;;1.90;1.20;;;9.40;93.90;;;;;;5135386;28;20100;-76
2022/12/22 06:08:46;;;;;;;2.03;1.15;;;9.30;93.90;;;;;;5098887;28;20047;-77
2022/12/22 06:11:16;;;;;;;2.05;1.30;;;9.30;93.90;;;;;;5115304;28;20073;-76
2022/12/22 06:13:43;;;;;;;1.60;1.08;;;9.30;93.90;;;;;;5117801;28;20084;-76
2022/12/22 06:16:09;;;;;;;2.33;1.40;;;9.30;93.90;;;;;;5116549;28;20047;-77
2022/12/22 06:18:34;;;;;;;2.67;1.45;;;9.30;93.90;;;;;;5117703;28;20131;-76
2022/12/22 06:21:00;;;;;;;5.47;1.98;;;9.30;93.90;;;;;;5135825;28;20058;-76
2022/12/22 06:23:26;;;;;;;2.47;1.38;;;9.30;93.90;;;;;;5136171;28;20042;-76
2022/12/22 06:26:07;;;;;;;3.28;1.40;;;9.30;93.90;;;;;;5118330;28;20063;-76
2022/12/22 06:28:33;;;;;;;3.38;1.50;;;9.40;94.00;;;;;;5117620;28;20078;-77
2022/12/22 06:30:59;;;;;;;2.03;1.20;;;9.40;93.90;;;;;;5137126;28;20410;-76
2022/12/22 06:33:24;;;;;;;3.45;2.00;;;9.40;93.90;;;;;;5136845;28;20067;-76
2022/12/22 06:35:50;;;;;;;3.33;1.70;;;9.40;93.90;;;;;;5101230;28;20497;-76
2022/12/22 06:38:15;;;;;;;4.00;2.00;;;9.30;93.90;;;;;;5115937;28;20047;-76
2022/12/22 06:40:41;;;;;;;3.22;1.80;;;9.40;93.90;;;;;;5135685;28;20031;-76
2022/12/22 06:43:07;;;;;;;3.97;2.10;;;9.40;93.90;;;;;;5100638;28;20129;-76
2022/12/22 06:45:35;;;;;;;3.33;1.67;;;9.40;93.90;;;;;;5117190;28;20043;-76
2022/12/22 06:48:00;;;;;;;3.45;2.00;;;9.30;93.90;;;;;;5115983;28;20044;-76
2022/12/22 06:50:26;;;;;;;4.28;2.05;;;9.40;93.90;;;;;;5117915;28;20050;-76
2022/12/22 06:52:51;;;;;;;4.25;2.22;;;9.30;93.90;;;;;;5117473;28;20035;-76
2022/12/22 06:55:17;;;;;;;3.17;1.85;;;9.40;93.90;;;;;;5115420;28;20401;-76
2022/12/22 06:57:43;;;;;;;4.50;2.00;;;9.40;93.90;;;;;;5116944;28;20035;-76
2022/12/22 07:00:09;;;;;;;3.10;1.70;;;9.30;93.90;;;;;;5116405;28;20051;-76
2022/12/22 07:02:35;;;;;;;3.22;1.73;;;9.30;93.90;;;;;;5115278;28;20039;-76
2022/12/22 07:05:00;;;;;;;2.78;1.58;;;9.30;93.90;;;;;;5114736;28;20065;-76
2022/12/22 07:07:26;;;;;;;3.45;1.70;;;9.20;93.90;;;;;;5135179;28;20043;-76
2022/12/22 07:09:52;;;;;;;2.38;1.40;;;9.30;93.90;;;;;;5116698;28;20043;-76
2022/12/22 07:12:17;;;;;;;2.42;1.40;;;9.30;93.90;;;;;;5082592;28;20050;-76
2022/12/22 07:14:43;;;;;;;2.47;1.50;;;9.30;93.90;;;;;;5116217;28;20115;-76
2022/12/22 07:17:08;;;;;;;2.05;1.17;;;9.30;93.90;;;;;;5115987;28;20044;-77
2022/12/22 07:19:34;;;;;;;2.58;1.33;;;9.30;93.90;;;;;;5117136;28;20538;-76
2022/12/22 07:22:00;;;;;;;2.65;1.40;;;9.30;94.00;;;;;;5116532;28;20041;-80
2022/12/22 07:24:26;;;;;;;1.90;1.13;;;9.20;94.00;;;;;;5116682;28;20043;-76
2022/12/22 07:26:51;;;;;;;3.40;1.50;;;9.10;94.00;;;;;;5134396;28;20096;-76
2022/12/22 07:29:17;;;;;;;3.45;1.42;;;9.10;94.10;;;;;;5080331;28;20066;-76
2022/12/22 07:31:43;;;;;;;3.42;1.58;;;9.00;94.10;;;;;;5134278;28;20966;-76
2022/12/22 07:34:09;;;;;;;3.13;1.63;;;9.00;94.20;;;;;;5114373;28;20075;-76
2022/12/22 07:36:34;;;;;;;2.88;1.45;;;9.00;94.20;;;;;;5116344;28;20397;-76
2022/12/22 07:39:01;;;;;;;2.75;1.40;;;8.90;94.20;;;;;;5133851;28;20430;-76
2022/12/22 07:44:09;;;;;;;2.05;1.25;;;9.00;94.20;;;;;;5118154;28;20043;-76
2022/12/22 07:46:37;;;;;;;2.67;1.45;;;9.00;94.20;;;;;;5099223;28;20039;-76
2022/12/22 07:51:50;;;;;;;3.45;1.65;;;9.00;94.20;;;;;;5118512;28;20129;-75
2022/12/22 07:54:16;;;;;;;4.47;2.13;;;9.00;94.20;;;;;;5097714;28;20050;-75
2022/12/22 07:56:43;;;;;;;2.88;1.70;;;9.00;94.10;;;;;;5134170;28;20039;-75
2022/12/22 07:59:10;;;;;;;4.20;1.73;;;9.00;94.10;;;;;;5133541;28;20050;-74
2022/12/22 08:01:36;;;;;;;3.17;1.73;;;9.10;94.10;;;;;;5134115;28;20035;-74
2022/12/22 08:04:02;;;;;;;3.88;1.77;;;9.00;94.10;;;;;;5115159;28;20494;-74
2022/12/22 08:06:30;;;;;;;3.47;1.55;;;9.10;94.10;;;;;;5098048;28;20498;-74
2022/12/22 08:08:56;;;;;;;4.35;2.25;;;9.00;94.00;;;;;;5133443;28;20088;-74
2022/12/22 08:11:21;;;;;;;4.50;2.10;;;9.00;94.00;;;;;;5133300;28;20046;-74
2022/12/22 08:13:48;;;;;;;5.75;2.60;;;9.20;94.10;;;;;;5115119;28;20051;-74
2022/12/22 08:16:15;;;;;;;5.55;2.40;;;9.10;94.00;;;;;;5133729;28;20043;-74
2022/12/22 08:18:40;;;;;;;5.35;2.70;;;9.10;94.00;;;;;;5115211;28;20043;-74
2022/12/22 08:21:07;;;;;;;4.43;2.25;;;9.10;94.00;;;;;;5133371;28;20084;-74
2022/12/22 08:23:34;;;;;;;3.92;2.33;;;9.00;94.00;;;;;;5114189;28;20444;-74
2022/12/22 08:26:15;;;;;;;4.32;2.20;;;9.00;94.00;;;;;;5114974;28;20092;-74
2022/12/22 08:28:48;;;;;;;4.78;2.25;;;9.10;94.00;;;;;;5133564;28;20036;-74
2022/12/22 08:31:14;;;;;;;5.70;2.40;;;9.10;94.00;;;;;;5113542;28;20130;-73
2022/12/22 08:33:40;;;;;;;5.00;2.10;;;9.10;94.00;;;;;;5098349;28;20098;-73
2022/12/22 08:36:06;;;;;;;4.07;2.05;;;9.10;94.00;;;;;;5098124;28;20047;-73
2022/12/22 08:38:33;;;;;;;5.13;2.25;;;9.10;94.00;;;;;;5133587;28;20093;-72
2022/12/22 08:40:58;;;;;;;4.40;2.25;;;9.10;94.00;;;;;;5114759;28;20047;-73
2022/12/22 08:43:25;;;;;;;3.85;1.95;;;9.10;94.00;;;;;;5114868;28;20043;-73
2022/12/22 08:45:51;;;;;;;4.75;2.20;;;9.00;94.00;;;;;;5114979;28;20039;-73
2022/12/22 08:48:16;;;;;;;4.82;2.13;;;9.10;94.00;;;;;;5097711;28;20477;-72
2022/12/22 08:50:42;;;;;;;4.57;2.00;;;9.10;94.00;;;;;;5097773;28;20035;-73
2022/12/22 08:53:08;;;;;;;4.70;2.10;;;9.10;94.00;;;;;;5114009;28;20047;-72
2022/12/22 08:55:34;;;;;;;4.32;2.03;;;9.00;94.00;;;;;;5113660;28;20040;-72
2022/12/22 08:58:00;;;;;;;3.97;2.00;;;9.00;94.00;;;;;;5112786;28;20066;-73
2022/12/22 09:00:26;;;;;;;4.43;1.88;;;9.00;94.00;;;;;;5097754;28;20069;-73
2022/12/22 09:02:51;;;;;;;4.15;1.80;;;9.00;94.00;;;;;;5101041;28;20088;-73
2022/12/22 09:05:18;;;;;;;4.22;2.00;;;9.00;94.00;;;;;;5136939;28;20130;-72
2022/12/22 09:07:46;;;;;;;5.30;2.25;;;9.00;94.00;;;;;;5116335;28;20039;-73
2022/12/22 09:10:12;;;;;;;4.82;2.03;;;9.00;94.10;;;;;;5117760;28;20070;-72
2022/12/22 09:12:39;;;;;;;5.07;1.83;;;8.90;94.10;;;;;;5117846;28;20090;-72
2022/12/22 09:15:07;;;;;;;5.53;2.20;;;8.90;94.10;;;;;;5100740;28;20046;-73
2022/12/22 09:17:35;;;;;;;4.78;1.77;;;8.90;94.10;;;;;;5100836;28;20042;-72
2022/12/22 09:20:01;;;;;;;4.90;2.00;;;9.00;94.10;;;;;;5099417;28;20047;-73
2022/12/22 09:22:27;;;;;;;4.63;1.80;;;8.90;94.10;;;;;;5083914;28;20031;-73
2022/12/22 09:24:52;;;;;;;4.57;1.88;;;8.90;94.10;;;;;;5117564;28;20508;-72
2022/12/22 09:27:18;;;;;;;5.63;2.13;;;8.90;94.10;;;;;;5117735;28;20035;-73
2022/12/22 09:29:44;;;;;;;6.25;2.63;;;8.80;94.10;;;;;;5100322;28;20516;-73
2022/12/22 09:32:09;;;;;;;5.68;2.22;;;8.90;94.10;;;;;;5100477;28;20381;-73
2022/12/22 09:34:35;;;;;;;5.70;2.38;;;8.70;94.00;;;;;;5117773;28;20035;-73
2022/12/22 09:37:01;;;;;;;5.97;2.45;;;8.80;94.00;;;;;;5100394;28;20043;-73
2022/12/22 09:39:27;;;;;;;7.50;2.83;;;8.90;94.10;;;;;;5099946;28;20127;-73
2022/12/22 09:41:54;;;;;;;7.25;2.80;;;8.80;94.00;;;;;;5135715;28;20039;-72
2022/12/22 09:44:25;;;;;;;8.55;3.33;;;8.80;94.00;;;;;;5100709;28;20035;-73
2022/12/22 09:46:53;;;;;;;6.50;2.70;;;8.70;94.00;;;;;;5115857;28;20032;-73
2022/12/22 09:49:21;;;;;;;7.72;2.92;;;8.70;94.10;;;;;;5136073;28;20070;-73
2022/12/22 09:51:53;;;;;;;8.45;3.17;;;8.70;94.10;;;;;;5100781;28;20577;-72
2022/12/22 09:54:19;;;;;;;7.97;3.10;;;8.70;94.10;;;;;;5098144;28;20062;-72
2022/12/22 09:56:45;;;;;;;8.55;3.58;;;8.70;94.00;;;;;;5117131;28;20054;-72
2022/12/22 09:59:16;;;;;;;8.27;3.00;;;8.70;94.00;;;;;;5083095;28;20043;-74
2022/12/22 10:02:14;;;;;;;7.47;3.15;;;8.70;94.10;;;;;;5135831;28;20031;-73
2022/12/22 10:05:11;;;;;;;6.88;2.75;;;8.60;94.00;;;;;;5104972;28;20039;-72
2022/12/22 10:07:39;;;;;;;6.03;2.47;;;8.60;94.00;;;;;;5102836;28;20046;-72
2022/12/22 10:10:19;;;;;;;6.13;2.60;;;8.60;94.00;;;;;;5117117;28;20035;-72
2022/12/22 10:12:47;;;;;;;6.93;2.67;;;8.60;94.00;;;;;;5116817;28;20509;-73
2022/12/22 10:15:13;;;;;;;6.78;2.60;;;8.60;93.90;;;;;;5083318;28;20035;-73
2022/12/22 10:17:39;;;;;;;5.30;2.55;;;8.50;93.90;;;;;;5135421;28;20481;-72
2022/12/22 10:20:20;;;;;;;6.05;2.40;;;8.40;93.90;;;;;;5116739;28;20482;-72
2022/12/22 10:23:07;;;;;;;6.10;2.35;;;8.40;94.00;;;;;;5116284;28;20051;-73
2022/12/22 10:25:36;;;;;;;6.20;2.30;;;8.30;94.10;;;;;;5135052;28;20045;-73
2022/12/22 10:28:09;;;;;;;5.90;2.70;;;8.30;94.20;;;;;;5100150;28;20477;-73
2022/12/22 10:30:39;;;;;;;7.97;2.80;;;8.30;94.20;;;;;;5135083;28;20081;-73
2022/12/22 10:33:09;;;;;;;6.80;2.92;;;8.30;94.10;;;;;;5134985;28;20035;-73
2022/12/22 10:35:43;;;;;;;9.02;3.70;;;8.30;94.10;;;;;;5116499;28;20535;-73
2022/12/22 10:38:17;;;;;;;9.60;3.53;;;8.30;94.10;;;;;;5115058;28;20040;-73
2022/12/22 10:40:45;;;;;;;8.75;3.75;;;8.30;94.10;;;;;;5083102;28;20398;-74
2022/12/22 10:43:19;;;;;;;8.90;3.40;;;8.30;94.10;;;;;;5116452;28;20550;-73
2022/12/22 10:45:48;;;;;;;7.68;2.83;;;8.30;94.00;;;;;;5099994;28;20042;-73
2022/12/22 10:48:14;;;;;;;6.35;3.00;;;8.40;94.00;;;;;;5116475;28;20043;-73
2022/12/22 10:50:47;;;;;;;8.13;2.88;;;8.40;94.00;;;;;;5134678;28;20397;-73
2022/12/22 10:53:13;;;;;;;5.22;2.33;;;8.40;94.00;;;;;;5097967;28;20047;-73
2022/12/22 10:55:38;;;;;;;5.55;2.60;;;8.40;93.90;;;;;;5116128;28;20043;-72
2022/12/22 10:58:15;;;;;;;6.18;2.42;;;8.50;93.90;;;;;;5134632;28;20061;-72
2022/12/22 11:00:43;;;;;;;5.20;2.78;;;8.50;93.90;;;;;;5114665;28;20405;-72
2022/12/22 11:03:13;;;;;;;4.45;2.10;;;8.50;94.20;;;;;;5116410;28;20039;-72
2022/12/22 11:05:39;;;;;;;5.10;2.20;;;8.50;93.80;;;;;;5115982;28;20065;-72
2022/12/22 11:08:17;;;;;;;4.45;2.40;;;8.70;93.90;;;;;;5134901;28;20111;-73
2022/12/22 11:11:06;;;;;;;4.97;2.10;;;8.60;93.80;;;;;;5099060;28;20035;-73
2022/12/22 11:14:00;;;;;;;5.15;2.60;;;8.60;93.70;;;;;;5115864;28;20042;-74
2022/12/22 11:16:50;;;;;;;6.90;2.20;;;8.70;93.70;;;;;;5101472;28;20039;-73
2022/12/22 11:19:43;;;;;;;4.15;2.17;;;8.60;93.70;;;;;;5114910;28;20067;-74
2022/12/22 11:22:39;;;;;;;5.22;2.08;;;8.70;93.80;;;;;;5098711;28;20039;-73
2022/12/22 11:25:20;;;;;;;4.50;2.38;;;8.70;93.70;;;;;;5114999;28;20035;-72
2022/12/22 11:28:07;;;;;;;5.70;2.10;;;8.80;93.70;;;;;;5098635;28;20038;-73
2022/12/22 11:31:00;;;;;;;6.18;2.53;;;8.90;93.70;;;;;;5134076;28;20092;-73
2022/12/22 11:33:44;;;;;;;5.97;2.95;;;9.00;93.60;;;;;;5118617;28;20549;-72
2022/12/22 11:36:31;;;;;;;6.85;2.95;;;9.00;93.50;;;;;;5134395;28;20043;-73
2022/12/22 11:39:11;;;;;;;6.13;2.85;;;9.00;93.50;;;;;;5115294;28;20054;-72
2022/12/22 11:42:02;;;;;;;5.13;2.80;;;8.90;93.50;;;;;;5099373;28;20066;-73
2022/12/22 11:44:46;;;;;;;5.38;2.67;;;8.90;93.50;;;;;;5115663;28;20035;-74
2022/12/22 11:47:23;;;;;;;4.63;2.40;;;8.90;93.50;;;;;;5115141;28;20043;-72
2022/12/22 11:50:11;;;;;;;5.63;2.80;;;9.00;93.60;;;;;;5133904;28;20051;-72
2022/12/22 11:53:05;;;;;;;6.18;2.92;;;8.80;93.60;;;;;;5133705;28;20057;-72
2022/12/22 11:55:39;;;;;;;6.55;2.58;;;8.80;93.60;;;;;;5133428;28;20047;-73
2022/12/22 11:58:35;;;;;;;5.03;2.28;;;8.80;93.70;;;;;;5134026;28;20043;-73
2022/12/22 12:01:33;;;;;;;5.00;2.63;;;8.90;93.80;;;;;;5115109;28;20043;-72
2022/12/22 12:04:33;;;;;;;5.45;2.55;;;8.90;93.80;;;;;;5115008;28;20130;-73
2022/12/22 12:07:13;;;;;;;4.53;2.15;;;9.00;93.70;;;;;;5116817;28;20462;-75
2022/12/22 12:10:13;;;;;;;4.60;2.22;;;9.10;93.70;;;;;;5100488;28;20100;-76
2022/12/22 12:13:01;;;;;;;3.65;1.70;;;9.30;93.60;;;;;;5118802;28;20043;-75
2022/12/22 12:15:42;;;;;;;4.43;2.13;;;9.20;93.60;;;;;;5097935;28;20066;-75
2022/12/22 12:18:47;;;;;;;4.72;2.53;;;9.30;93.60;;;;;;5114895;28;20565;-75
2022/12/22 12:21:33;;;;;;;5.82;2.97;;;9.30;93.50;;;;;;5117975;28;20039;-77
2022/12/22 12:24:24;;;;;;;5.20;2.60;;;9.50;93.50;;;;;;5114820;28;20043;-75
2022/12/22 12:27:26;;;;;;;5.25;2.63;;;9.40;93.40;;;;;;5115141;28;20057;-75
2022/12/22 12:30:13;;;;;;;6.57;2.70;;;9.50;93.40;;;;;;5113600;28;20043;-76
2022/12/22 12:32:51;;;;;;;5.15;2.60;;;9.60;93.30;;;;;;5098011;28;20035;-75
2022/12/22 12:35:37;;;;;;;4.72;2.70;;;9.60;93.30;;;;;;5100430;28;20035;-75
2022/12/22 12:38:28;;;;;;;5.63;2.88;;;9.60;93.20;;;;;;5137001;28;20046;-75
2022/12/22 12:41:04;;;;;;;6.93;2.90;;;9.70;93.20;;;;;;5121658;28;20034;-76
2022/12/22 12:43:30;;;;;;;6.07;2.85;;;9.60;93.10;;;;;;5085453;28;20039;-77
2022/12/22 12:45:56;;;;;;;6.72;3.25;;;9.70;93.10;;;;;;5101781;28;20075;-78
2022/12/22 12:48:35;;;;;;;6.03;3.40;;;9.80;93.10;;;;;;5136751;28;20074;-76
2022/12/22 12:51:01;;;;;;;5.80;3.20;;;9.80;93.20;;;;;;5117826;28;20477;-77
2022/12/22 12:53:28;;;;;;;5.68;2.97;;;9.70;93.10;;;;;;5118116;28;20073;-76
2022/12/22 12:55:58;;;;;;;5.07;2.50;;;9.70;93.10;;;;;;5101289;28;20134;-76
2022/12/22 12:58:46;;;;;;;5.45;2.60;;;9.70;93.10;;;;;;5101115;28;20038;-77
2022/12/22 13:01:52;;;;;;;5.57;2.72;;;9.70;93.10;;;;;;5086333;28;20035;-78
2022/12/22 13:04:50;;;;;;;5.03;2.45;;;9.70;93.10;;;;;;5119346;28;20548;-74
2022/12/22 13:07:15;;;;;;;5.30;2.70;;;9.70;93.10;;;;;;5136187;28;20043;-76
2022/12/22 13:10:05;;;;;;;4.72;2.50;;;9.60;93.00;;;;;;5100945;28;20529;-76
2022/12/22 13:12:47;;;;;;;5.90;2.97;;;9.50;93.10;;;;;;5100858;28;20543;-76
2022/12/22 13:15:27;;;;;;;5.20;2.50;;;9.50;93.10;;;;;;5085109;28;20129;-76
2022/12/22 13:17:53;;;;;;;4.97;2.40;;;9.50;93.20;;;;;;5136442;28;20043;-76
2022/12/22 13:20:34;;;;;;;4.95;2.60;;;9.40;93.20;;;;;;5136256;28;20528;-76
2022/12/22 13:23:02;;;;;;;7.00;3.10;;;9.50;93.20;;;;;;5135885;28;20043;-76
2022/12/22 13:25:49;;;;;;;6.72;3.38;;;9.50;93.20;;;;;;5082384;28;20040;-76
2022/12/22 13:28:16;;;;;;;6.45;3.45;;;9.50;93.10;;;;;;5135840;28;20508;-76
2022/12/22 13:30:49;;;;;;;7.63;4.10;;;9.50;93.10;;;;;;5082379;28;20043;-76
2022/12/22 13:33:18;;;;;;;6.80;3.55;;;9.40;93.10;;;;;;5116281;28;20063;-76
2022/12/22 13:35:46;;;;;;;6.45;3.83;;;9.40;93.10;;;;;;5083883;28;20042;-76
2022/12/22 13:38:38;;;;;;;6.93;3.70;;;9.50;93.10;;;;;;5115636;28;20086;-75
2022/12/22 13:41:22;;;;;;;6.35;3.53;;;9.40;93.10;;;;;;5135693;28;20035;-76
2022/12/22 13:43:54;;;;;;;6.15;3.03;;;9.40;93.10;;;;;;5100526;28;20047;-76
2022/12/22 13:46:20;;;;;;;6.57;3.53;;;9.40;93.10;;;;;;5116122;28;20135;-77
2022/12/22 13:48:49;;;;;;;9.32;4.10;;;9.40;93.10;;;;;;5099626;28;20108;-76
2022/12/22 13:51:26;;;;;;;6.15;3.65;;;9.40;93.10;;;;;;5135789;28;20047;-76
2022/12/22 13:53:57;;;;;;;6.72;3.53;;;9.40;93.20;;;;;;5135149;28;20051;-77
2022/12/22 13:56:26;;;;;;;6.20;3.35;;;9.30;93.10;;;;;;5117542;28;20051;-76
2022/12/22 13:58:57;;;;;;;7.90;3.95;;;9.40;93.20;;;;;;5135832;28;20039;-77
2022/12/22 14:01:23;;;;;;;5.93;3.45;;;9.40;93.10;;;;;;5135943;28;20465;-77
2022/12/22 14:03:52;;;;;;;6.55;3.33;;;9.40;93.10;;;;;;5100203;28;20114;-75
2022/12/22 14:06:25;;;;;;;5.93;3.28;;;9.40;93.10;;;;;;5100091;28;20064;-78
2022/12/22 14:08:51;;;;;;;6.97;3.40;;;9.40;93.10;;;;;;5117094;28;20132;-78
2022/12/22 14:11:17;;;;;;;6.20;3.17;;;9.40;93.10;;;;;;5117099;28;20493;-77
2022/12/22 14:13:43;;;;;;;5.82;3.15;;;9.30;93.10;;;;;;5117095;28;20042;-77
2022/12/22 14:16:12;;;;;;;6.82;3.50;;;9.40;93.10;;;;;;5099932;28;20498;-77
2022/12/22 14:18:39;;;;;;;4.60;2.67;;;9.40;93.10;;;;;;5117129;28;20085;-78
2022/12/22 14:21:06;;;;;;;4.50;2.53;;;9.40;93.10;;;;;;5135065;28;20066;-77
2022/12/22 14:23:36;;;;;;;4.40;2.25;;;9.30;93.10;;;;;;5135704;28;20046;-77
2022/12/22 14:26:04;;;;;;;5.10;2.67;;;9.30;93.10;;;;;;5135262;28;20035;-77
2022/12/22 14:28:40;;;;;;;5.47;2.85;;;9.30;93.10;;;;;;5135118;28;20577;-77
2022/12/22 14:31:11;;;;;;;5.55;3.08;;;9.30;93.20;;;;;;5117348;28;20398;-77
2022/12/22 14:33:37;;;;;;;;;;;9.30;93.20;;;;;;5100784;28;20517;-77
2022/12/22 14:36:12;;;;;;;5.22;2.60;;;9.30;93.10;;;;;;5116640;28;19963;-77
2022/12/22 14:38:43;;;;;;;4.50;2.45;;;9.20;93.40;;;;;;5116488;28;20046;-77
2022/12/22 14:41:39;;;;;;;5.27;2.73;;;9.30;93.10;;;;;;5117232;28;20031;-77
2022/12/22 14:43:58;;;;;;;6.25;3.08;;;9.30;93.10;;;;;;5134512;28;20039;-77
2022/12/22 14:46:24;;;;;;;5.32;2.75;;;9.30;93.10;;;;;;5099454;28;20043;-77
2022/12/22 14:48:50;;;;;;;4.45;2.55;;;9.30;93.10;;;;;;5114907;28;20379;-77
2022/12/22 14:51:17;;;;;;;5.35;2.80;;;9.20;93.10;;;;;;5116424;28;20505;-77
2022/12/22 14:53:56;;;;;;;4.53;2.45;;;9.40;93.20;;;;;;5099550;28;20084;-77
2022/12/22 14:56:22;;;;;;;5.68;2.95;;;9.20;93.10;;;;;;5116429;28;20035;-77
2022/12/22 14:58:49;;;;;;;4.00;2.40;;;9.30;93.20;;;;;;5098683;28;20043;-77
2022/12/22 15:01:29;;;;;;;5.10;2.78;;;9.20;93.10;;;;;;5100366;28;20035;-77
2022/12/22 15:04:07;;;;;;;5.67;2.77;;;9.20;93.10;;;;;;5118569;28;20060;-77
2022/12/22 15:06:37;;;;;;;5.20;2.70;;;9.20;93.10;;;;;;5083792;28;20261;-78
2022/12/22 15:09:24;;;;;;;4.78;2.50;;;9.20;93.10;;;;;;5117233;28;20091;-77
2022/12/22 15:12:00;;;;;;;4.13;2.28;;;9.20;93.10;;;;;;5120987;28;20047;-77
2022/12/22 15:14:29;;;;;;;3.63;2.10;;;9.20;93.10;;;;;;5115621;28;20031;-77
2022/12/22 15:16:58;;;;;;;5.60;2.80;;;9.20;93.10;;;;;;5099831;28;20118;-77
2022/12/22 15:19:28;;;;;;;4.57;2.50;;;9.20;93.20;;;;;;5116255;28;20066;-76
2022/12/22 15:21:54;;;;;;;5.65;2.17;;;9.20;93.20;;;;;;5114343;28;20097;-77
2022/12/22 15:24:19;;;;;;;4.03;2.33;;;9.10;93.10;;;;;;5134018;28;20058;-77
2022/12/22 15:26:46;;;;;;;4.47;2.28;;;9.10;93.20;;;;;;5115624;28;20051;-77
2022/12/22 15:29:12;;;;;;;3.83;2.17;;;9.10;93.20;;;;;;5098836;28;20042;-77
2022/12/22 15:31:39;;;;;;;3.40;2.10;;;9.00;93.20;;;;;;5115676;28;20129;-77
2022/12/22 15:34:12;;;;;;;3.67;2.00;;;9.10;93.20;;;;;;5081938;28;20553;-77
2022/12/22 15:36:38;;;;;;;2.97;1.92;;;9.00;93.20;;;;;;5099294;28;20019;-77
2022/12/22 15:39:03;;;;;;;3.17;2.00;;;9.00;93.20;;;;;;5098750;28;20050;-76
2022/12/22 15:41:29;;;;;;;3.45;1.85;;;9.00;93.30;;;;;;5097686;28;20043;-77
2022/12/22 15:43:54;;;;;;;3.90;1.80;;;9.00;93.30;;;;;;5114021;28;20042;-77
2022/12/22 15:46:20;;;;;;;3.20;1.75;;;8.90;93.20;;;;;;5098761;28;20043;-77
2022/12/22 15:48:46;;;;;;;3.53;2.00;;;9.00;93.30;;;;;;5116076;28;20076;-77
2022/12/22 15:51:19;;;;;;;4.13;2.10;;;9.00;93.30;;;;;;5116071;28;20138;-77
2022/12/22 15:53:45;;;;;;;2.72;1.60;;;8.90;93.30;;;;;;5134093;28;20146;-77
2022/12/22 15:56:15;;;;;;;4.03;1.70;;;8.90;93.30;;;;;;5133615;28;20066;-77
2022/12/22 15:58:41;;;;;;;3.10;1.70;;;8.90;93.30;;;;;;5113570;28;20048;-77
2022/12/22 16:01:10;;;;;;;4.40;2.20;;;8.90;93.30;;;;;;5098508;28;20138;-77
2022/12/22 16:03:36;;;;;;;3.28;1.83;;;8.90;93.30;;;;;;5116115;28;20035;-77
2022/12/22 16:06:03;;;;;;;4.00;1.95;;;9.00;93.30;;;;;;5115265;28;20042;-77
2022/12/22 16:08:32;;;;;;;4.50;2.13;;;8.90;93.30;;;;;;5133538;28;20047;-77
2022/12/22 16:10:58;;;;;;;3.00;1.73;;;8.90;93.30;;;;;;5115880;28;20049;-77
2022/12/22 16:13:26;;;;;;;3.58;1.90;;;8.90;93.40;;;;;;5113117;28;20035;-77
2022/12/22 16:15:53;;;;;;;3.28;1.60;;;8.80;93.30;;;;;;5115048;28;20047;-77
2022/12/22 16:18:18;;;;;;;3.17;1.70;;;8.90;93.40;;;;;;5097152;28;20043;-77
2022/12/22 16:20:46;;;;;;;2.95;1.60;;;8.80;93.40;;;;;;5098885;28;20043;-77
2022/12/22 16:23:16;;;;;;;2.75;1.60;;;8.80;93.40;;;;;;5133362;28;20130;-77
2022/12/22 16:25:44;;;;;;;2.72;1.48;;;8.80;93.40;;;;;;5114933;28;20046;-77
2022/12/22 16:28:17;;;;;;;2.72;1.45;;;8.80;93.40;;;;;;5097869;28;20486;-77
2022/12/22 16:41:24;;;;;;;1.95;0.90;;;8.90;93.50;;;;;;5172190;27;20140;-79
2022/12/22 16:43:52;;;;;;;1.35;0.80;;;8.80;93.40;;;;;;5132201;27;20039;-79
2022/12/22 16:46:20;;;;;;;2.92;1.30;;;8.70;93.40;;;;;;5151065;27;20462;-79
2022/12/22 16:48:49;;;;;;;2.28;1.40;;;8.70;93.40;;;;;;5098183;27;20738;-79
2022/12/22 16:51:23;;;;;;;1.65;1.02;;;8.70;93.40;;;;;;5132037;27;20039;-79
2022/12/22 16:53:49;;;;;;;2.08;1.00;;;8.70;93.40;;;;;;5132164;27;20046;-79
2022/12/22 16:56:19;;;;;;;1.27;0.88;;;8.70;93.40;;;;;;5150568;27;20117;-79
2022/12/22 16:58:45;;;;;;;1.40;0.80;;;8.70;93.50;;;;;;5132099;27;20062;-79
2022/12/22 17:01:23;;;;;;;1.95;1.08;;;8.70;93.40;;;;;;5132026;27;20046;-79
2022/12/22 17:03:49;;;;;;;1.83;1.05;;;8.70;93.40;;;;;;5115412;27;20039;-79
2022/12/22 17:06:16;;;;;;;2.22;1.10;;;8.70;93.70;;;;;;5150123;27;20550;-79